createdAt,value
2022-09-18T00:01:39.027Z,22.40
2022-09-18T00:04:09.123Z,22.40
2022-09-18T00:06:39.569Z,22.30
2022-09-18T00:09:11.033Z,22.30
2022-09-18T00:11:42.246Z,22.40
2022-09-18T00:14:13.643Z,22.40
2022-09-18T00:16:42.568Z,22.40
2022-09-18T00:19:11.269Z,22.40
2022-09-18T00:21:42.208Z,22.40
2022-09-18T00:24:10.464Z,22.40
2022-09-18T00:26:40.229Z,22.40
2022-09-18T00:29:08.491Z,22.40
2022-09-18T00:31:37.479Z,22.40
2022-09-18T00:34:08.666Z,22.40
2022-09-18T00:36:38.438Z,22.40
2022-09-18T00:39:07.234Z,22.30
2022-09-18T00:41:38.093Z,22.30
2022-09-18T00:44:37.478Z,22.30
2022-09-18T00:47:30.709Z,22.30
2022-09-18T00:50:04.480Z,22.30
2022-09-18T00:52:41.304Z,22.30
2022-09-18T00:55:11.469Z,22.20
2022-09-18T00:57:44.590Z,22.20
2022-09-18T01:00:15.561Z,22.20
2022-09-18T01:02:46.065Z,22.20
2022-09-18T01:05:16.019Z,22.10
2022-09-18T01:07:56.173Z,22.00
2022-09-18T01:10:39.991Z,22.00
2022-09-18T01:13:18.049Z,22.00
2022-09-18T01:15:53.631Z,22.00
2022-09-18T01:18:30.977Z,21.90
2022-09-18T01:21:13.146Z,21.90
2022-09-18T01:24:20.340Z,21.80
2022-09-18T01:26:55.226Z,21.80
2022-09-18T01:29:35.887Z,21.80
2022-09-18T01:32:09.624Z,21.70
2022-09-18T01:34:46.158Z,21.70
2022-09-18T01:37:20.628Z,21.60
2022-09-18T01:39:54.699Z,21.60
2022-09-18T01:42:27.036Z,21.60
2022-09-18T01:45:00.530Z,21.60
2022-09-18T01:47:34.154Z,21.60
2022-09-18T01:50:04.112Z,21.50
2022-09-18T01:52:36.792Z,21.50
2022-09-18T01:55:10.908Z,21.50
2022-09-18T01:57:44.573Z,21.40
2022-09-18T02:00:15.182Z,21.40
2022-09-18T02:02:47.581Z,21.40
2022-09-18T02:05:20.551Z,21.40
2022-09-18T02:07:54.944Z,21.40
2022-09-18T02:10:26.045Z,21.40
2022-09-18T02:12:56.991Z,21.30
2022-09-18T02:15:28.209Z,21.30
2022-09-18T02:17:59.725Z,21.30
2022-09-18T02:20:30.426Z,21.30
2022-09-18T02:23:01.372Z,21.30
2022-09-18T02:25:34.333Z,21.20
2022-09-18T02:28:04.651Z,21.10
2022-09-18T02:30:35.170Z,21.10
2022-09-18T02:33:03.424Z,21.00
2022-09-18T02:35:42.988Z,21.00
2022-09-18T02:38:19.007Z,20.90
2022-09-18T02:40:59.148Z,20.90
2022-09-18T02:43:38.739Z,20.80
2022-09-18T02:46:18.083Z,20.80
2022-09-18T02:48:55.766Z,20.70
2022-09-18T02:51:32.727Z,20.70
2022-09-18T02:54:07.529Z,20.60
2022-09-18T02:56:41.298Z,20.50
2022-09-18T02:59:13.766Z,20.50
2022-09-18T03:01:45.690Z,20.40
2022-09-18T03:04:16.331Z,20.40
2022-09-18T03:06:45.015Z,20.20
2022-09-18T03:09:13.287Z,20.10
2022-09-18T03:11:41.542Z,20.10
2022-09-18T03:14:09.941Z,20.00
2022-09-18T03:16:38.245Z,19.90
2022-09-18T03:19:07.968Z,19.80
2022-09-18T03:21:36.233Z,19.80
2022-09-18T03:24:04.554Z,19.70
2022-09-18T03:26:33.086Z,19.60
2022-09-18T03:29:01.299Z,19.50
2022-09-18T03:31:29.711Z,19.40
2022-09-18T03:33:58.171Z,19.30
2022-09-18T03:36:27.800Z,19.20
2022-09-18T03:38:56.083Z,19.10
2022-09-18T03:41:24.371Z,19.00
2022-09-18T03:43:52.994Z,19.00
2022-09-18T03:46:24.207Z,18.90
2022-09-18T03:48:53.187Z,18.80
2022-09-18T03:51:22.132Z,18.70
2022-09-18T03:53:52.340Z,18.60
2022-09-18T03:56:20.764Z,18.50
2022-09-18T03:58:49.007Z,18.40
2022-09-18T04:01:17.225Z,18.30
2022-09-18T04:03:45.451Z,18.30
2022-09-18T04:06:13.709Z,18.20
2022-09-18T04:08:41.996Z,18.10
2022-09-18T04:11:13.602Z,18.00
2022-09-18T04:13:42.093Z,17.90
2022-09-18T04:16:10.414Z,17.90
2022-09-18T04:18:38.715Z,17.80
2022-09-18T04:21:07.280Z,17.80
2022-09-18T04:23:35.572Z,17.70
2022-09-18T04:26:09.123Z,17.70
2022-09-18T04:28:39.274Z,17.60
2022-09-18T04:31:07.750Z,17.60
2022-09-18T04:33:36.057Z,17.60
2022-09-18T04:36:04.360Z,17.60
2022-09-18T04:38:32.584Z,17.50
2022-09-18T04:41:01.968Z,17.60
2022-09-18T04:43:30.549Z,17.50
2022-09-18T04:46:00.336Z,17.50
2022-09-18T04:48:28.713Z,17.40
2022-09-18T04:50:57.159Z,17.40
2022-09-18T04:53:25.371Z,17.40
2022-09-18T04:55:53.717Z,17.40
2022-09-18T04:58:22.081Z,17.40
2022-09-18T05:00:51.118Z,17.30
2022-09-18T05:03:22.688Z,17.30
2022-09-18T05:05:51.118Z,17.30
2022-09-18T05:08:19.458Z,17.20
2022-09-18T05:10:47.704Z,17.20
2022-09-18T05:13:16.203Z,17.20
2022-09-18T05:15:44.471Z,17.20
2022-09-18T05:18:13.983Z,17.20
2022-09-18T05:20:43.581Z,17.20
2022-09-18T05:23:11.812Z,17.20
2022-09-18T05:25:40.083Z,17.20
2022-09-18T05:28:08.291Z,17.20
2022-09-18T05:30:36.582Z,17.10
2022-09-18T05:33:07.256Z,17.10
2022-09-18T05:35:37.519Z,17.10
2022-09-18T05:38:07.591Z,17.10
2022-09-18T05:40:37.472Z,17.10
2022-09-18T05:43:07.379Z,17.00
2022-09-18T05:45:35.753Z,17.00
2022-09-18T05:48:06.050Z,17.00
2022-09-18T05:50:36.409Z,17.00
2022-09-18T05:53:08.078Z,17.00
2022-09-18T05:55:36.372Z,16.90
2022-09-18T05:58:06.154Z,17.00
2022-09-18T06:00:36.359Z,17.00
2022-09-18T06:03:06.809Z,17.00
2022-09-18T06:05:37.701Z,17.00
2022-09-18T06:08:09.517Z,17.00
2022-09-18T06:10:39.697Z,17.10
2022-09-18T06:13:09.090Z,17.00
2022-09-18T06:15:38.331Z,17.00
2022-09-18T06:18:08.810Z,17.00
2022-09-18T06:20:37.529Z,17.10
2022-09-18T06:23:06.110Z,17.10
2022-09-18T06:25:36.558Z,17.10
2022-09-18T06:28:06.603Z,17.20
2022-09-18T06:30:36.810Z,17.20
2022-09-18T06:33:06.553Z,17.20
2022-09-18T06:35:35.730Z,17.30
2022-09-18T06:38:04.302Z,17.30
2022-09-18T06:40:33.292Z,17.30
2022-09-18T06:43:03.851Z,17.30
2022-09-18T06:45:32.689Z,17.40
2022-09-18T06:48:04.843Z,17.40
2022-09-18T06:50:33.467Z,17.40
2022-09-18T06:53:05.890Z,17.40
2022-09-18T06:55:37.166Z,17.50
2022-09-18T06:58:06.860Z,17.60
2022-09-18T07:00:35.215Z,17.60
2022-09-18T07:03:04.456Z,17.70
2022-09-18T07:05:33.995Z,17.70
2022-09-18T07:08:02.657Z,17.80
2022-09-18T07:10:38.759Z,17.80
2022-09-18T07:13:08.593Z,17.80
2022-09-18T07:15:37.181Z,17.80
2022-09-18T07:18:06.967Z,18.00
2022-09-18T07:20:35.371Z,18.00
2022-09-18T07:23:03.868Z,18.10
2022-09-18T07:25:34.376Z,18.20
2022-09-18T07:28:08.950Z,18.20
2022-09-18T07:30:37.280Z,18.30
2022-09-18T07:33:07.066Z,18.30
2022-09-18T07:35:35.429Z,18.30
2022-09-18T07:38:06.039Z,18.40
2022-09-18T07:40:35.115Z,18.50
2022-09-18T07:43:05.471Z,18.60
2022-09-18T07:45:35.622Z,18.60
2022-09-18T07:48:05.024Z,18.60
2022-09-18T07:50:33.594Z,18.70
2022-09-18T07:53:03.749Z,18.70
2022-09-18T07:55:49.065Z,18.80
2022-09-18T07:58:17.566Z,18.80
2022-09-18T08:00:47.547Z,18.90
2022-09-18T08:03:16.203Z,18.90
2022-09-18T08:05:44.531Z,19.00
2022-09-18T08:08:14.514Z,19.00
2022-09-18T08:10:44.631Z,19.10
2022-09-18T08:13:13.699Z,19.10
2022-09-18T08:15:43.462Z,19.20
2022-09-18T08:18:13.198Z,19.20
2022-09-18T08:20:41.707Z,19.30
2022-09-18T08:23:12.515Z,19.30
2022-09-18T08:25:42.253Z,19.30
2022-09-18T08:28:11.826Z,19.40
2022-09-18T08:30:40.083Z,19.50
2022-09-18T08:33:09.695Z,19.50
2022-09-18T08:35:39.317Z,19.60
2022-09-18T08:38:10.421Z,19.60
2022-09-18T08:40:58.587Z,19.60
2022-09-18T08:43:48.665Z,19.70
2022-09-18T08:46:21.348Z,19.80
2022-09-18T08:48:58.072Z,19.90
2022-09-18T08:51:32.095Z,19.90
2022-09-18T08:54:17.899Z,20.00
2022-09-18T08:56:47.785Z,20.10
2022-09-18T08:59:24.042Z,20.10
2022-09-18T09:02:00.447Z,20.20
2022-09-18T09:04:29.123Z,20.30
2022-09-18T09:07:10.122Z,20.30
2022-09-18T09:09:53.667Z,20.40
2022-09-18T09:12:30.148Z,20.40
2022-09-18T09:15:30.970Z,20.50
2022-09-18T09:18:13.456Z,20.60
2022-09-18T09:20:50.787Z,20.70
2022-09-18T09:23:43.394Z,20.70
2022-09-18T09:26:14.635Z,20.80
2022-09-18T09:28:53.240Z,20.80
2022-09-18T09:31:26.012Z,20.90
2022-09-18T09:33:59.433Z,20.90
2022-09-18T09:36:30.583Z,21.00
2022-09-18T09:39:07.373Z,21.00
2022-09-18T09:41:41.691Z,21.00
2022-09-18T09:44:26.240Z,21.10
2022-09-18T09:47:05.429Z,21.10
2022-09-18T09:49:40.306Z,21.20
2022-09-18T09:52:17.603Z,21.20
2022-09-18T09:54:47.352Z,21.30
2022-09-18T09:57:23.146Z,21.40
2022-09-18T10:00:00.716Z,21.40
2022-09-18T10:02:42.728Z,21.50
2022-09-18T10:05:24.958Z,21.50
2022-09-18T10:08:03.118Z,21.60
2022-09-18T10:10:40.770Z,21.60
2022-09-18T10:13:15.866Z,21.70
2022-09-18T10:15:46.988Z,21.70
2022-09-18T10:18:18.439Z,21.70
2022-09-18T10:20:49.034Z,21.80
2022-09-18T10:23:25.628Z,21.80
2022-09-18T10:25:58.337Z,21.90
2022-09-18T10:28:29.617Z,22.00
2022-09-18T10:31:01.581Z,22.00
2022-09-18T10:33:36.249Z,22.10
2022-09-18T10:36:11.158Z,22.10
2022-09-18T10:38:40.040Z,22.10
2022-09-18T10:41:33.719Z,22.20
2022-09-18T10:44:25.028Z,22.20
2022-09-18T10:46:57.165Z,22.20
2022-09-18T10:49:29.531Z,22.30
2022-09-18T10:52:21.728Z,22.30
2022-09-18T10:55:01.712Z,22.40
2022-09-18T10:57:33.803Z,22.40
2022-09-18T11:00:04.057Z,22.50
2022-09-18T11:02:39.686Z,22.50
2022-09-18T11:05:18.027Z,22.60
2022-09-18T11:07:49.923Z,22.60
2022-09-18T11:10:19.708Z,22.60
2022-09-18T11:12:55.525Z,22.70
2022-09-18T11:15:26.828Z,22.70
2022-09-18T11:17:56.942Z,22.80
2022-09-18T11:20:28.959Z,22.80
2022-09-18T11:23:25.175Z,22.80
2022-09-18T11:26:12.354Z,22.80
2022-09-18T11:28:42.414Z,22.90
2022-09-18T11:31:16.268Z,23.00
2022-09-18T11:33:48.054Z,23.00
2022-09-18T11:36:24.711Z,23.00
2022-09-18T11:38:53.107Z,23.10
2022-09-18T11:41:26.002Z,23.10
2022-09-18T11:44:03.108Z,23.10
2022-09-18T11:46:43.602Z,23.10
2022-09-18T11:49:17.799Z,23.20
2022-09-18T11:51:50.505Z,23.20
2022-09-18T11:54:27.159Z,23.30
2022-09-18T11:57:00.360Z,23.40
2022-09-18T11:59:33.909Z,23.30
2022-09-18T12:02:11.626Z,23.30
2022-09-18T12:04:49.432Z,23.40
2022-09-18T12:07:37.752Z,23.40
2022-09-18T12:10:16.512Z,23.40
2022-09-18T12:12:48.256Z,23.50
2022-09-18T12:15:21.808Z,23.50
2022-09-18T12:17:55.395Z,23.60
2022-09-18T12:20:27.723Z,23.60
2022-09-18T12:22:57.757Z,23.60
2022-09-18T12:25:41.393Z,23.60
2022-09-18T12:28:20.443Z,23.60
2022-09-18T12:30:58.392Z,23.60
2022-09-18T12:33:38.323Z,23.60
2022-09-18T12:36:22.226Z,23.60
2022-09-18T12:39:12.788Z,23.60
2022-09-18T12:41:53.304Z,23.60
2022-09-18T12:44:43.852Z,23.70
2022-09-18T12:47:46.217Z,23.70
2022-09-18T12:50:36.649Z,23.80
2022-09-18T12:53:19.213Z,23.70
2022-09-18T12:56:02.437Z,23.70
2022-09-18T12:58:51.867Z,23.70
2022-09-18T13:01:28.963Z,23.70
2022-09-18T13:04:10.084Z,23.80
2022-09-18T13:06:44.145Z,23.80
2022-09-18T13:09:23.908Z,23.90
2022-09-18T13:11:58.670Z,23.90
2022-09-18T13:14:33.364Z,24.00
2022-09-18T13:17:07.580Z,24.10
2022-09-18T13:19:42.717Z,24.00
2022-09-18T13:22:15.689Z,24.20
2022-09-18T13:24:44.879Z,24.30
2022-09-18T13:27:16.731Z,24.40
2022-09-18T13:29:59.028Z,24.60
2022-09-18T13:32:40.319Z,24.60
2022-09-18T13:35:22.089Z,24.60
2022-09-18T13:38:04.134Z,24.80
2022-09-18T13:40:37.460Z,24.90
2022-09-18T13:43:25.719Z,25.30
2022-09-18T13:45:55.270Z,26.10
2022-09-18T13:48:28.266Z,27.30
2022-09-18T13:51:00.026Z,28.00
2022-09-18T13:53:41.787Z,28.10
2022-09-18T13:56:12.202Z,27.50
2022-09-18T13:58:50.966Z,27.00
2022-09-18T14:02:02.544Z,26.60
2022-09-18T14:04:59.048Z,26.10
2022-09-18T14:08:01.196Z,25.70
2022-09-18T14:10:33.280Z,25.40
2022-09-18T14:13:30.264Z,25.10
2022-09-18T14:16:09.659Z,24.80
2022-09-18T14:18:53.377Z,24.50
2022-09-18T14:21:26.670Z,24.30
2022-09-18T14:24:37.712Z,24.10
2022-09-18T14:27:39.420Z,24.10
2022-09-18T14:30:18.165Z,24.00
2022-09-18T14:33:17.561Z,24.00
2022-09-18T14:35:52.227Z,23.80
2022-09-18T14:38:34.739Z,23.70
2022-09-18T14:41:11.779Z,23.60
2022-09-18T14:43:48.426Z,23.60
2022-09-18T14:46:20.541Z,23.50
2022-09-18T14:48:49.404Z,23.50
2022-09-18T14:51:21.241Z,23.40
2022-09-18T14:53:52.066Z,23.40
2022-09-18T14:56:27.048Z,23.30
2022-09-18T14:58:58.034Z,23.20
2022-09-18T15:01:29.436Z,23.20
2022-09-18T15:04:00.083Z,23.10
2022-09-18T15:06:35.177Z,23.10
2022-09-18T15:09:05.020Z,23.00
2022-09-18T15:11:46.863Z,22.90
2022-09-18T15:14:24.523Z,22.90
2022-09-18T15:16:56.738Z,22.80
2022-09-18T15:19:25.165Z,22.70
2022-09-18T15:21:54.392Z,22.70
2022-09-18T15:24:22.745Z,22.60
2022-09-18T15:26:56.241Z,22.60
2022-09-18T15:29:31.032Z,22.50
2022-09-18T15:31:59.841Z,22.50
2022-09-18T15:34:30.420Z,22.40
2022-09-18T15:37:01.379Z,22.40
2022-09-18T15:39:32.889Z,22.20
2022-09-18T15:42:20.313Z,22.20
2022-09-18T15:45:22.413Z,22.00
2022-09-18T15:47:51.156Z,22.00
2022-09-18T15:50:40.288Z,21.90
2022-09-18T15:53:29.581Z,21.90
2022-09-18T15:56:09.517Z,21.80
2022-09-18T15:58:52.921Z,21.80
2022-09-18T16:01:27.291Z,21.70
2022-09-18T16:04:05.537Z,21.70
2022-09-18T16:06:49.271Z,21.60
2022-09-18T16:09:42.122Z,21.60
2022-09-18T16:12:43.538Z,21.60
2022-09-18T16:15:23.191Z,21.50
2022-09-18T16:18:02.102Z,21.40
2022-09-18T16:20:37.186Z,21.40
2022-09-18T16:23:19.685Z,21.30
2022-09-18T16:26:01.450Z,21.20
2022-09-18T16:28:32.467Z,21.10
2022-09-18T16:31:00.970Z,21.10
2022-09-18T16:33:32.566Z,21.10
2022-09-18T16:36:04.093Z,21.00
2022-09-18T16:38:33.236Z,20.90
2022-09-18T16:41:01.647Z,20.90
2022-09-18T16:43:30.186Z,20.80
2022-09-18T16:45:58.434Z,20.80
2022-09-18T16:48:26.724Z,20.70
2022-09-18T16:50:56.543Z,20.70
2022-09-18T16:53:24.974Z,20.70
2022-09-18T16:55:57.235Z,20.70
2022-09-18T16:58:29.092Z,20.70
2022-09-18T17:00:58.890Z,20.60
2022-09-18T17:03:28.061Z,20.50
2022-09-18T17:05:57.940Z,20.50
2022-09-18T17:08:26.330Z,20.50
2022-09-18T17:10:54.576Z,20.40
2022-09-18T17:13:23.215Z,20.40
2022-09-18T17:15:51.569Z,20.40
2022-09-18T17:18:19.821Z,20.30
2022-09-18T17:20:48.085Z,20.30
2022-09-18T17:23:17.755Z,20.30
2022-09-18T17:25:46.039Z,20.20
2022-09-18T17:28:17.771Z,20.20
2022-09-18T17:30:46.009Z,20.20
2022-09-18T17:33:20.962Z,20.10
2022-09-18T17:35:49.237Z,20.10
2022-09-18T17:38:18.904Z,20.10
2022-09-18T17:40:57.506Z,20.00
2022-09-18T17:43:26.275Z,19.90
2022-09-18T17:45:56.263Z,19.90
2022-09-18T17:48:25.566Z,19.90
2022-09-18T17:50:58.670Z,19.90
2022-09-18T17:53:28.825Z,19.80
2022-09-18T17:55:59.168Z,19.80
2022-09-18T17:58:27.883Z,19.80
2022-09-18T18:00:56.858Z,19.80
2022-09-18T18:03:26.089Z,19.70
2022-09-18T18:05:55.138Z,19.70
2022-09-18T18:08:23.455Z,19.60
2022-09-18T18:10:53.106Z,19.50
2022-09-18T18:13:21.462Z,19.60
2022-09-18T18:15:50.190Z,19.50
2022-09-18T18:18:19.813Z,19.50
2022-09-18T18:20:50.974Z,19.50
2022-09-18T18:23:19.464Z,19.50
2022-09-18T18:25:48.367Z,19.50
2022-09-18T18:28:18.130Z,19.50
2022-09-18T18:30:47.780Z,19.40
2022-09-18T18:33:16.019Z,19.40
2022-09-18T18:35:44.289Z,19.40
2022-09-18T18:38:12.630Z,19.40
2022-09-18T18:40:40.954Z,19.30
2022-09-18T18:43:15.096Z,19.30
2022-09-18T18:45:53.731Z,19.30
2022-09-18T18:48:22.347Z,19.20
2022-09-18T18:50:51.311Z,19.20
2022-09-18T18:53:19.553Z,19.20
2022-09-18T18:55:49.271Z,19.20
2022-09-18T18:58:17.605Z,19.10
2022-09-18T19:00:46.556Z,19.10
2022-09-18T19:03:16.266Z,19.10
2022-09-18T19:05:44.501Z,19.10
2022-09-18T19:08:14.139Z,19.00
2022-09-18T19:10:42.456Z,18.90
2022-09-18T19:13:10.683Z,18.90
2022-09-18T19:15:38.893Z,18.80
2022-09-18T19:18:07.146Z,18.80
2022-09-18T19:20:36.810Z,18.70
2022-09-18T19:23:06.934Z,18.60
2022-09-18T19:25:35.859Z,18.60
2022-09-18T19:28:04.176Z,18.50
2022-09-18T19:30:36.106Z,18.40
2022-09-18T19:33:04.751Z,18.40
2022-09-18T19:35:37.567Z,18.30
2022-09-18T19:38:06.146Z,18.30
2022-09-18T19:40:38.170Z,18.30
2022-09-18T19:43:08.866Z,18.20
2022-09-18T19:45:38.536Z,18.10
2022-09-18T19:48:11.225Z,18.10
2022-09-18T19:50:41.314Z,18.00
2022-09-18T19:53:09.562Z,18.00
2022-09-18T19:55:38.711Z,17.90
2022-09-18T19:58:07.243Z,17.90
2022-09-18T20:00:37.121Z,17.80
2022-09-18T20:03:05.537Z,17.90
2022-09-18T20:05:34.169Z,17.80
2022-09-18T20:08:06.384Z,17.80
2022-09-18T20:10:35.637Z,17.70
2022-09-18T20:13:03.961Z,17.70
2022-09-18T20:15:32.277Z,17.60
2022-09-18T20:18:00.641Z,17.70
2022-09-18T20:20:28.908Z,17.70
2022-09-18T20:22:57.308Z,17.70
2022-09-18T20:25:27.023Z,17.60
2022-09-18T20:27:55.287Z,17.70
2022-09-18T20:30:23.569Z,17.60
2022-09-18T20:32:54.358Z,17.70
2022-09-18T20:35:22.691Z,17.60
2022-09-18T20:37:51.555Z,17.60
2022-09-18T20:40:20.042Z,17.50
2022-09-18T20:42:51.600Z,17.50
2022-09-18T20:45:20.209Z,17.40
2022-09-18T20:47:48.506Z,17.50
2022-09-18T20:50:17.280Z,17.40
2022-09-18T20:52:45.646Z,17.40
2022-09-18T20:55:17.578Z,17.30
2022-09-18T20:57:46.385Z,17.30
2022-09-18T21:00:17.197Z,17.20
2022-09-18T21:02:46.009Z,17.20
2022-09-18T21:05:14.626Z,17.20
2022-09-18T21:07:43.794Z,17.20
2022-09-18T21:10:12.855Z,17.20
2022-09-18T21:12:41.312Z,17.10
2022-09-18T21:15:13.132Z,17.10
2022-09-18T21:17:43.126Z,17.10
2022-09-18T21:20:12.195Z,17.10
2022-09-18T21:23:00.535Z,17.00
2022-09-18T21:25:31.391Z,17.00
2022-09-18T21:27:59.845Z,17.00
2022-09-18T21:30:28.142Z,17.00
2022-09-18T21:32:59.160Z,16.90
2022-09-18T21:35:27.415Z,16.90
2022-09-18T21:37:55.712Z,16.90
2022-09-18T21:40:24.203Z,16.80
2022-09-18T21:42:52.911Z,16.80
2022-09-18T21:45:21.189Z,16.70
2022-09-18T21:47:51.488Z,16.70
2022-09-18T21:50:22.438Z,16.70
2022-09-18T21:52:50.696Z,16.70
2022-09-18T21:55:20.655Z,16.70
2022-09-18T21:57:48.957Z,16.60
2022-09-18T22:00:17.353Z,16.60
2022-09-18T22:02:45.620Z,16.60
2022-09-18T22:05:14.774Z,16.50
2022-09-18T22:07:47.204Z,16.50
2022-09-18T22:10:16.201Z,16.50
2022-09-18T22:12:44.471Z,16.50
2022-09-18T22:15:12.721Z,16.40
2022-09-18T22:17:40.969Z,16.40
2022-09-18T22:20:09.910Z,16.40
2022-09-18T22:22:38.296Z,16.30
2022-09-18T22:25:08.509Z,16.20
2022-09-18T22:27:37.078Z,16.30
2022-09-18T22:30:07.216Z,16.20
2022-09-18T22:32:35.475Z,16.20
2022-09-18T22:35:04.019Z,16.10
2022-09-18T22:37:32.523Z,16.10
2022-09-18T22:40:00.848Z,16.10
2022-09-18T22:42:31.064Z,16.10
2022-09-18T22:44:59.889Z,16.10
2022-09-18T22:47:28.233Z,16.10
2022-09-18T22:49:56.475Z,16.10
2022-09-18T22:52:24.840Z,16.10
2022-09-18T22:54:53.073Z,16.00
2022-09-18T22:57:21.293Z,16.00
2022-09-18T22:59:50.929Z,15.90
2022-09-18T23:02:19.855Z,16.00
2022-09-18T23:04:48.339Z,16.00
2022-09-18T23:07:17.878Z,15.90
2022-09-18T23:09:47.412Z,15.90
2022-09-18T23:12:15.680Z,15.90
2022-09-18T23:14:43.973Z,15.90
2022-09-18T23:17:13.644Z,15.90
2022-09-18T23:19:42.308Z,15.80
2022-09-18T23:22:12.302Z,15.80
2022-09-18T23:24:40.600Z,15.80
2022-09-18T23:27:08.899Z,15.80
2022-09-18T23:29:39.066Z,15.70
2022-09-18T23:32:07.544Z,15.70
2022-09-18T23:34:37.206Z,15.70
2022-09-18T23:37:05.573Z,15.70
2022-09-18T23:39:35.269Z,15.70
2022-09-18T23:42:05.870Z,15.60
2022-09-18T23:44:34.559Z,15.50
2022-09-18T23:47:03.198Z,15.50
2022-09-18T23:49:32.051Z,15.50
2022-09-18T23:52:02.677Z,15.40
2022-09-18T23:54:32.616Z,15.40
2022-09-18T23:57:00.893Z,15.40
2022-09-18T23:59:29.273Z,15.40
